South Heart, North Dakota
Current Conditions -  °F | °C
As of 4:56 AM on Monday 22 Dec 2014 (Local Time) from KDIK Reporting Station
Light Snow Light Snow  
Wind Chill: 19°   Ceiling: 1000
Heat Index: 32°   Visibility: 2mi
Dew Point: 29°   Wind: 22mph
Humidity: 88%   Direction: 300°WNW
Pressure: 29.43"   Gusts: 30mph
Location:  46.86°N, 102.99°W
Report Text: KDIK 221156Z AUTO 30019G26KT 2SM -SN BR FEW007 BKN010 OVC020 00/M02 A2943 RMK AO2 PK WND 29027/1146 SLP983 P0000 60000 70005 T00001017 10028 20000 53008
Loading
Personal Weather Stations






























Interactive Weather Map New forecast layout! Learn more

10-Day Weather Forecast

Advertisements
Track Severe Weather on mobile